sensor_id;sensor_type;location;lat;lon;timestamp;pressure;altitude;pressure_sealevel;temperature;humidity
59831;BME280;45711;50.108;13.712;2022-07-29T00:01:51;97974.56;;;14.96;67.06
59831;BME280;45711;50.108;13.712;2022-07-29T00:04:17;97965.28;;;15.24;65.10
59831;BME280;45711;50.108;13.712;2022-07-29T00:06:44;97974.16;;;15.02;65.28
59831;BME280;45711;50.108;13.712;2022-07-29T00:09:09;97959.72;;;14.98;65.18
59831;BME280;45711;50.108;13.712;2022-07-29T00:11:35;97964.31;;;14.98;65.35
59831;BME280;45711;50.108;13.712;2022-07-29T00:14:00;97959.91;;;15.02;65.01
59831;BME280;45711;50.108;13.712;2022-07-29T00:16:25;97963.91;;;14.91;64.99
59831;BME280;45711;50.108;13.712;2022-07-29T00:18:51;97963.78;;;14.96;64.83
59831;BME280;45711;50.108;13.712;2022-07-29T00:21:16;97948.78;;;14.81;65.35
59831;BME280;45711;50.108;13.712;2022-07-29T00:23:43;97952.63;;;14.89;65.34
59831;BME280;45711;50.108;13.712;2022-07-29T00:26:08;97952.53;;;14.94;66.50
59831;BME280;45711;50.108;13.712;2022-07-29T00:28:34;97946.44;;;15.02;64.52
59831;BME280;45711;50.108;13.712;2022-07-29T00:30:59;97951.69;;;14.85;64.90
59831;BME280;45711;50.108;13.712;2022-07-29T00:33:24;97939.28;;;14.83;64.92
59831;BME280;45711;50.108;13.712;2022-07-29T00:35:50;97937.63;;;14.74;65.39
59831;BME280;45711;50.108;13.712;2022-07-29T00:38:15;97934.63;;;14.75;65.40
59831;BME280;45711;50.108;13.712;2022-07-29T00:40:43;97936.91;;;14.82;66.62
59831;BME280;45711;50.108;13.712;2022-07-29T00:43:08;97938.34;;;14.66;67.81
59831;BME280;45711;50.108;13.712;2022-07-29T00:45:34;97936.84;;;14.73;67.59
59831;BME280;45711;50.108;13.712;2022-07-29T00:47:59;97927.56;;;15.02;66.26
59831;BME280;45711;50.108;13.712;2022-07-29T00:50:25;97930.41;;;14.83;66.17
59831;BME280;45711;50.108;13.712;2022-07-29T00:52:51;97917.53;;;14.80;65.79
59831;BME280;45711;50.108;13.712;2022-07-29T00:55:17;97918.38;;;14.80;66.20
59831;BME280;45711;50.108;13.712;2022-07-29T00:57:44;97918.97;;;14.77;66.26
59831;BME280;45711;50.108;13.712;2022-07-29T01:00:11;97926.00;;;14.87;65.87
59831;BME280;45711;50.108;13.712;2022-07-29T01:02:37;97921.84;;;14.81;65.88
59831;BME280;45711;50.108;13.712;2022-07-29T01:05:02;97928.81;;;14.82;65.46
59831;BME280;45711;50.108;13.712;2022-07-29T01:07:28;97926.13;;;14.82;65.51
59831;BME280;45711;50.108;13.712;2022-07-29T01:09:55;97912.22;;;14.89;65.34
59831;BME280;45711;50.108;13.712;2022-07-29T01:12:23;97917.56;;;15.02;64.80
59831;BME280;45711;50.108;13.712;2022-07-29T01:14:51;97912.41;;;14.92;66.62
59831;BME280;45711;50.108;13.712;2022-07-29T01:17:18;97905.38;;;14.46;68.73
59831;BME280;45711;50.108;13.712;2022-07-29T01:19:47;97912.34;;;14.83;66.89
59831;BME280;45711;50.108;13.712;2022-07-29T01:22:19;97912.22;;;14.66;67.65
59831;BME280;45711;50.108;13.712;2022-07-29T01:24:57;97909.72;;;14.70;67.78
59831;BME280;45711;50.108;13.712;2022-07-29T01:27:32;97911.78;;;14.50;68.44
59831;BME280;45711;50.108;13.712;2022-07-29T01:30:03;97900.38;;;14.53;67.82
59831;BME280;45711;50.108;13.712;2022-07-29T01:32:29;97908.28;;;14.36;68.28
59831;BME280;45711;50.108;13.712;2022-07-29T01:34:58;97905.19;;;14.43;68.19
59831;BME280;45711;50.108;13.712;2022-07-29T01:37:28;97910.09;;;14.54;67.82
59831;BME280;45711;50.108;13.712;2022-07-29T01:39:55;97910.50;;;14.70;67.38
59831;BME280;45711;50.108;13.712;2022-07-29T01:42:23;97915.34;;;14.82;67.12
59831;BME280;45711;50.108;13.712;2022-07-29T01:44:54;97913.38;;;14.74;67.52
59831;BME280;45711;50.108;13.712;2022-07-29T01:47:23;97905.50;;;14.77;66.83
59831;BME280;45711;50.108;13.712;2022-07-29T01:49:50;97897.63;;;14.81;66.39
59831;BME280;45711;50.108;13.712;2022-07-29T01:52:19;97902.81;;;14.77;66.63
59831;BME280;45711;50.108;13.712;2022-07-29T01:54:45;97908.44;;;14.67;67.03
59831;BME280;45711;50.108;13.712;2022-07-29T01:57:13;97902.75;;;14.69;67.16
59831;BME280;45711;50.108;13.712;2022-07-29T01:59:39;97906.34;;;14.64;67.32
59831;BME280;45711;50.108;13.712;2022-07-29T02:02:06;97901.44;;;14.66;67.00
59831;BME280;45711;50.108;13.712;2022-07-29T02:04:35;97901.28;;;14.85;66.91
59831;BME280;45711;50.108;13.712;2022-07-29T02:07:02;97905.31;;;14.74;68.24
59831;BME280;45711;50.108;13.712;2022-07-29T02:09:31;97904.66;;;14.91;67.42
59831;BME280;45711;50.108;13.712;2022-07-29T02:11:58;97905.38;;;14.82;66.69
59831;BME280;45711;50.108;13.712;2022-07-29T02:14:24;97901.44;;;14.66;66.80
59831;BME280;45711;50.108;13.712;2022-07-29T02:16:52;97905.84;;;14.62;67.15
59831;BME280;45711;50.108;13.712;2022-07-29T02:19:19;97896.31;;;14.56;67.11
59831;BME280;45711;50.108;13.712;2022-07-29T02:21:47;97897.53;;;14.50;67.36
59831;BME280;45711;50.108;13.712;2022-07-29T02:24:13;97904.13;;;14.66;66.87
59831;BME280;45711;50.108;13.712;2022-07-29T02:26:39;97902.00;;;14.54;66.97
59831;BME280;45711;50.108;13.712;2022-07-29T02:29:05;97900.91;;;14.55;67.09
59831;BME280;45711;50.108;13.712;2022-07-29T02:31:32;97907.25;;;14.60;67.93
59831;BME280;45711;50.108;13.712;2022-07-29T02:33:58;97909.56;;;14.52;69.24
59831;BME280;45711;50.108;13.712;2022-07-29T02:36:25;97908.72;;;14.66;68.55
59831;BME280;45711;50.108;13.712;2022-07-29T02:38:53;97907.03;;;14.70;67.62
59831;BME280;45711;50.108;13.712;2022-07-29T02:41:23;97907.34;;;14.68;67.12
59831;BME280;45711;50.108;13.712;2022-07-29T02:43:50;97903.59;;;14.55;67.30
59831;BME280;45711;50.108;13.712;2022-07-29T02:46:20;97900.97;;;14.64;67.58
59831;BME280;45711;50.108;13.712;2022-07-29T02:48:48;97900.38;;;14.53;67.64
59831;BME280;45711;50.108;13.712;2022-07-29T02:51:17;97904.13;;;14.66;67.49
59831;BME280;45711;50.108;13.712;2022-07-29T02:53:44;97899.59;;;14.53;68.03
59831;BME280;45711;50.108;13.712;2022-07-29T02:56:14;97893.72;;;14.51;67.91
59831;BME280;45711;50.108;13.712;2022-07-29T02:58:41;97890.25;;;14.50;67.81
59831;BME280;45711;50.108;13.712;2022-07-29T03:01:08;97897.88;;;14.57;67.57
59831;BME280;45711;50.108;13.712;2022-07-29T03:03:35;97888.69;;;14.58;67.44
59831;BME280;45711;50.108;13.712;2022-07-29T03:06:02;97887.03;;;14.48;67.76
59831;BME280;45711;50.108;13.712;2022-07-29T03:08:28;97887.25;;;14.52;67.83
59831;BME280;45711;50.108;13.712;2022-07-29T03:10:54;97887.63;;;14.45;68.05
59831;BME280;45711;50.108;13.712;2022-07-29T03:13:21;97882.78;;;14.70;67.00
59831;BME280;45711;50.108;13.712;2022-07-29T03:15:47;97883.13;;;14.41;68.12
59831;BME280;45711;50.108;13.712;2022-07-29T03:18:14;97885.94;;;14.49;68.62
59831;BME280;45711;50.108;13.712;2022-07-29T03:20:39;97883.81;;;14.60;67.64
59831;BME280;45711;50.108;13.712;2022-07-29T03:23:05;97884.88;;;14.37;68.67
59831;BME280;45711;50.108;13.712;2022-07-29T03:25:31;97890.75;;;14.39;70.02
59831;BME280;45711;50.108;13.712;2022-07-29T03:27:56;97892.75;;;14.33;70.51
59831;BME280;45711;50.108;13.712;2022-07-29T03:30:23;97886.97;;;14.26;70.69
59831;BME280;45711;50.108;13.712;2022-07-29T03:32:48;97886.06;;;14.30;69.08
59831;BME280;45711;50.108;13.712;2022-07-29T03:35:14;97896.25;;;14.33;68.57
59831;BME280;45711;50.108;13.712;2022-07-29T03:37:41;97891.97;;;14.19;69.70
59831;BME280;45711;50.108;13.712;2022-07-29T03:40:08;97896.16;;;14.25;69.58
59831;BME280;45711;50.108;13.712;2022-07-29T03:42:35;97896.44;;;14.37;68.76
59831;BME280;45711;50.108;13.712;2022-07-29T03:45:03;97886.59;;;14.32;68.67
59831;BME280;45711;50.108;13.712;2022-07-29T03:47:31;97893.53;;;14.33;68.58
59831;BME280;45711;50.108;13.712;2022-07-29T03:49:59;97881.91;;;14.24;68.60
59831;BME280;45711;50.108;13.712;2022-07-29T03:52:25;97894.19;;;14.17;68.72
59831;BME280;45711;50.108;13.712;2022-07-29T03:54:51;97897.59;;;14.45;67.73
59831;BME280;45711;50.108;13.712;2022-07-29T03:57:16;97891.75;;;14.29;69.64
59831;BME280;45711;50.108;13.712;2022-07-29T03:59:44;97883.00;;;14.09;70.49
59831;BME280;45711;50.108;13.712;2022-07-29T04:02:10;97883.66;;;14.43;69.65
59831;BME280;45711;50.108;13.712;2022-07-29T04:04:38;97890.78;;;14.61;68.96
59831;BME280;45711;50.108;13.712;2022-07-29T04:07:03;97894.53;;;14.74;68.40
59831;BME280;45711;50.108;13.712;2022-07-29T04:09:29;97891.59;;;14.48;69.40
59831;BME280;45711;50.108;13.712;2022-07-29T04:11:54;97893.72;;;14.51;69.26
59831;BME280;45711;50.108;13.712;2022-07-29T04:14:20;97893.91;;;14.54;69.20
59831;BME280;45711;50.108;13.712;2022-07-29T04:16:45;97896.50;;;14.46;67.96
59831;BME280;45711;50.108;13.712;2022-07-29T04:19:10;97893.06;;;14.68;66.75
59831;BME280;45711;50.108;13.712;2022-07-29T04:21:38;97892.88;;;14.87;66.39
59831;BME280;45711;50.108;13.712;2022-07-29T04:24:03;97885.22;;;14.80;69.43
59831;BME280;45711;50.108;13.712;2022-07-29T04:26:29;97883.88;;;14.91;69.14
59831;BME280;45711;50.108;13.712;2022-07-29T04:28:54;97881.50;;;14.90;68.65
59831;BME280;45711;50.108;13.712;2022-07-29T04:31:19;97885.00;;;14.68;69.45
59831;BME280;45711;50.108;13.712;2022-07-29T04:33:45;97896.63;;;14.77;69.46
59831;BME280;45711;50.108;13.712;2022-07-29T04:36:11;97899.38;;;14.86;69.09
59831;BME280;45711;50.108;13.712;2022-07-29T04:38:38;97891.72;;;15.24;67.43
59831;BME280;45711;50.108;13.712;2022-07-29T04:41:04;97890.19;;;15.40;66.56
59831;BME280;45711;50.108;13.712;2022-07-29T04:43:30;97887.19;;;15.42;66.05
59831;BME280;45711;50.108;13.712;2022-07-29T04:45:55;97890.72;;;15.51;64.71
59831;BME280;45711;50.108;13.712;2022-07-29T04:48:20;97898.31;;;15.49;66.14
59831;BME280;45711;50.108;13.712;2022-07-29T04:50:46;97897.38;;;15.53;66.40
59831;BME280;45711;50.108;13.712;2022-07-29T04:53:11;97895.16;;;15.47;66.19
59831;BME280;45711;50.108;13.712;2022-07-29T04:55:38;97896.88;;;15.43;66.39
59831;BME280;45711;50.108;13.712;2022-07-29T04:58:04;97897.09;;;15.01;67.41
59831;BME280;45711;50.108;13.712;2022-07-29T05:00:29;97894.44;;;15.10;67.46
59831;BME280;45711;50.108;13.712;2022-07-29T05:02:54;97890.41;;;15.21;66.72
59831;BME280;45711;50.108;13.712;2022-07-29T05:05:20;97892.78;;;15.54;65.90
59831;BME280;45711;50.108;13.712;2022-07-29T05:07:45;97896.03;;;15.65;65.33
59831;BME280;45711;50.108;13.712;2022-07-29T05:10:10;97899.88;;;15.72;65.52
59831;BME280;45711;50.108;13.712;2022-07-29T05:12:39;97898.63;;;15.78;64.66
59831;BME280;45711;50.108;13.712;2022-07-29T05:15:05;97902.75;;;15.84;63.52
59831;BME280;45711;50.108;13.712;2022-07-29T05:17:31;97905.66;;;15.97;63.62
59831;BME280;45711;50.108;13.712;2022-07-29T05:19:56;97907.75;;;16.08;62.33
59831;BME280;45711;50.108;13.712;2022-07-29T05:22:21;97902.53;;;16.12;62.51
59831;BME280;45711;50.108;13.712;2022-07-29T05:24:47;97897.59;;;16.05;63.16
59831;BME280;45711;50.108;13.712;2022-07-29T05:27:12;97905.56;;;16.37;62.23
59831;BME280;45711;50.108;13.712;2022-07-29T05:29:42;97902.88;;;16.54;61.63
59831;BME280;45711;50.108;13.712;2022-07-29T05:32:07;97901.94;;;16.24;62.51
59831;BME280;45711;50.108;13.712;2022-07-29T05:34:33;97903.22;;;16.44;62.39
59831;BME280;45711;50.108;13.712;2022-07-29T05:37:01;97907.97;;;16.29;62.67
59831;BME280;45711;50.108;13.712;2022-07-29T05:39:26;97908.28;;;16.54;62.73
59831;BME280;45711;50.108;13.712;2022-07-29T05:41:51;97911.00;;;16.71;62.80
59831;BME280;45711;50.108;13.712;2022-07-29T05:44:17;97916.75;;;16.78;62.06
59831;BME280;45711;50.108;13.712;2022-07-29T05:46:44;97913.66;;;16.37;64.93
59831;BME280;45711;50.108;13.712;2022-07-29T05:49:11;97903.88;;;16.84;63.60
59831;BME280;45711;50.108;13.712;2022-07-29T05:51:37;97901.81;;;16.90;63.41
59831;BME280;45711;50.108;13.712;2022-07-29T05:54:02;97900.19;;;17.06;62.67
59831;BME280;45711;50.108;13.712;2022-07-29T05:56:28;97905.41;;;17.28;62.21
59831;BME280;45711;50.108;13.712;2022-07-29T05:58:53;97899.03;;;17.33;62.06
59831;BME280;45711;50.108;13.712;2022-07-29T06:01:19;97896.84;;;17.65;62.03
59831;BME280;45711;50.108;13.712;2022-07-29T06:03:45;97893.41;;;17.94;60.69
59831;BME280;45711;50.108;13.712;2022-07-29T06:06:11;97895.78;;;17.95;61.04
59831;BME280;45711;50.108;13.712;2022-07-29T06:08:36;97901.00;;;18.00;60.76
59831;BME280;45711;50.108;13.712;2022-07-29T06:11:02;97905.72;;;18.12;60.06
59831;BME280;45711;50.108;13.712;2022-07-29T06:13:28;97911.44;;;18.11;60.98
59831;BME280;45711;50.108;13.712;2022-07-29T06:15:53;97905.16;;;17.98;61.53
59831;BME280;45711;50.108;13.712;2022-07-29T06:18:18;97911.72;;;18.18;60.57
59831;BME280;45711;50.108;13.712;2022-07-29T06:20:47;97910.69;;;18.01;61.51
59831;BME280;45711;50.108;13.712;2022-07-29T06:23:12;97913.47;;;17.93;62.72
59831;BME280;45711;50.108;13.712;2022-07-29T06:25:39;97919.41;;;17.86;62.27
59831;BME280;45711;50.108;13.712;2022-07-29T06:28:04;97917.09;;;18.26;61.20
59831;BME280;45711;50.108;13.712;2022-07-29T06:30:30;97908.78;;;18.31;60.62
59831;BME280;45711;50.108;13.712;2022-07-29T06:32:55;97910.38;;;18.53;59.75
59831;BME280;45711;50.108;13.712;2022-07-29T06:35:23;97913.41;;;18.52;59.55
59831;BME280;45711;50.108;13.712;2022-07-29T06:37:50;97910.34;;;18.32;59.56
59831;BME280;45711;50.108;13.712;2022-07-29T06:40:16;97909.00;;;18.68;59.23
59831;BME280;45711;50.108;13.712;2022-07-29T06:42:59;97903.88;;;19.08;58.05
59831;BME280;45711;50.108;13.712;2022-07-29T06:45:25;97900.84;;;18.89;57.85
59831;BME280;45711;50.108;13.712;2022-07-29T06:47:50;97900.81;;;19.10;57.32
59831;BME280;45711;50.108;13.712;2022-07-29T06:50:16;97912.22;;;19.49;55.95
59831;BME280;45711;50.108;13.712;2022-07-29T06:52:41;97905.13;;;19.56;56.89
59831;BME280;45711;50.108;13.712;2022-07-29T06:55:08;97902.78;;;19.67;57.02
59831;BME280;45711;50.108;13.712;2022-07-29T06:57:34;97904.16;;;19.98;56.08
59831;BME280;45711;50.108;13.712;2022-07-29T06:59:59;97904.69;;;20.28;54.32
59831;BME280;45711;50.108;13.712;2022-07-29T07:02:25;97908.78;;;20.34;53.72
59831;BME280;45711;50.108;13.712;2022-07-29T07:04:50;97912.06;;;19.66;56.32
59831;BME280;45711;50.108;13.712;2022-07-29T07:07:15;97910.38;;;20.11;54.73
59831;BME280;45711;50.108;13.712;2022-07-29T07:09:41;97910.72;;;20.21;54.15
59831;BME280;45711;50.108;13.712;2022-07-29T07:12:08;97919.16;;;20.32;53.69
59831;BME280;45711;50.108;13.712;2022-07-29T07:14:33;97921.75;;;20.93;52.22
59831;BME280;45711;50.108;13.712;2022-07-29T07:16:59;97918.56;;;21.31;50.54
59831;BME280;45711;50.108;13.712;2022-07-29T07:19:25;97921.31;;;21.19;50.98
59831;BME280;45711;50.108;13.712;2022-07-29T07:21:50;97916.66;;;21.20;50.08
59831;BME280;45711;50.108;13.712;2022-07-29T07:24:17;97917.72;;;21.43;49.48
59831;BME280;45711;50.108;13.712;2022-07-29T07:26:42;97917.66;;;20.71;51.46
59831;BME280;45711;50.108;13.712;2022-07-29T07:29:09;97921.72;;;21.05;51.05
59831;BME280;45711;50.108;13.712;2022-07-29T07:31:35;97921.59;;;21.74;50.18
59831;BME280;45711;50.108;13.712;2022-07-29T07:34:01;97915.41;;;22.24;48.07
59831;BME280;45711;50.108;13.712;2022-07-29T07:36:26;97906.09;;;22.61;46.60
59831;BME280;45711;50.108;13.712;2022-07-29T07:38:51;97907.94;;;23.57;44.92
59831;BME280;45711;50.108;13.712;2022-07-29T07:41:17;97911.72;;;25.83;40.66
59831;BME280;45711;50.108;13.712;2022-07-29T07:43:42;97902.69;;;26.37;39.12
59831;BME280;45711;50.108;13.712;2022-07-29T07:46:09;97902.47;;;26.67;37.73
59831;BME280;45711;50.108;13.712;2022-07-29T07:48:34;97898.94;;;26.67;37.92
59831;BME280;45711;50.108;13.712;2022-07-29T07:51:01;97901.84;;;26.29;38.60
59831;BME280;45711;50.108;13.712;2022-07-29T07:53:26;97901.31;;;26.65;37.73
59831;BME280;45711;50.108;13.712;2022-07-29T07:55:52;97915.47;;;26.15;37.94
59831;BME280;45711;50.108;13.712;2022-07-29T07:58:17;97898.91;;;26.56;37.54
59831;BME280;45711;50.108;13.712;2022-07-29T08:00:46;97892.50;;;26.41;38.50
59831;BME280;45711;50.108;13.712;2022-07-29T08:03:13;97899.00;;;25.67;38.50
59831;BME280;45711;50.108;13.712;2022-07-29T08:05:38;97891.34;;;24.42;40.55
59831;BME280;45711;50.108;13.712;2022-07-29T08:08:04;97889.91;;;23.29;44.47
59831;BME280;45711;50.108;13.712;2022-07-29T08:10:29;97885.09;;;23.23;45.10
59831;BME280;45711;50.108;13.712;2022-07-29T08:13:13;97888.94;;;23.41;44.65
59831;BME280;45711;50.108;13.712;2022-07-29T08:15:39;97894.97;;;23.08;45.21
59831;BME280;45711;50.108;13.712;2022-07-29T08:18:04;97890.50;;;22.80;45.53
59831;BME280;45711;50.108;13.712;2022-07-29T08:20:31;97887.63;;;22.54;46.46
59831;BME280;45711;50.108;13.712;2022-07-29T08:22:58;97890.09;;;22.78;44.99
59831;BME280;45711;50.108;13.712;2022-07-29T08:25:24;97889.50;;;22.89;45.90
59831;BME280;45711;50.108;13.712;2022-07-29T08:27:49;97898.63;;;22.77;45.03
59831;BME280;45711;50.108;13.712;2022-07-29T08:30:15;97890.22;;;22.66;46.08
59831;BME280;45711;50.108;13.712;2022-07-29T08:32:40;97887.41;;;22.43;47.26
59831;BME280;45711;50.108;13.712;2022-07-29T08:35:06;97894.00;;;22.42;46.78
59831;BME280;45711;50.108;13.712;2022-07-29T08:37:33;97896.38;;;22.44;46.55
59831;BME280;45711;50.108;13.712;2022-07-29T08:39:58;97895.81;;;22.54;46.46
59831;BME280;45711;50.108;13.712;2022-07-29T08:42:23;97896.78;;;22.46;46.74
59831;BME280;45711;50.108;13.712;2022-07-29T08:44:49;97890.97;;;22.28;47.08
59831;BME280;45711;50.108;13.712;2022-07-29T08:47:15;97894.84;;;22.46;46.04
59831;BME280;45711;50.108;13.712;2022-07-29T08:49:41;97903.13;;;22.89;44.80
59831;BME280;45711;50.108;13.712;2022-07-29T08:52:06;97907.81;;;22.69;45.63
59831;BME280;45711;50.108;13.712;2022-07-29T08:54:36;97896.47;;;22.47;47.32
59831;BME280;45711;50.108;13.712;2022-07-29T08:57:02;97900.25;;;22.43;46.83
59831;BME280;45711;50.108;13.712;2022-07-29T08:59:28;97891.03;;;22.86;45.05
59831;BME280;45711;50.108;13.712;2022-07-29T09:01:55;97900.34;;;22.66;47.18
59831;BME280;45711;50.108;13.712;2022-07-29T09:04:22;97887.75;;;22.42;46.36
59831;BME280;45711;50.108;13.712;2022-07-29T09:06:51;97903.81;;;22.82;45.94
59831;BME280;45711;50.108;13.712;2022-07-29T09:09:16;97901.25;;;22.54;47.72
59831;BME280;45711;50.108;13.712;2022-07-29T09:11:43;97905.78;;;22.85;46.16
59831;BME280;45711;50.108;13.712;2022-07-29T09:14:10;97903.91;;;23.28;44.27
59831;BME280;45711;50.108;13.712;2022-07-29T09:16:46;97913.19;;;22.84;45.47
59831;BME280;45711;50.108;13.712;2022-07-29T09:19:19;97898.63;;;23.16;44.91
59831;BME280;45711;50.108;13.712;2022-07-29T09:21:44;97904.75;;;22.90;45.10
59831;BME280;45711;50.108;13.712;2022-07-29T09:24:38;97900.88;;;22.91;45.35
59831;BME280;45711;50.108;13.712;2022-07-29T09:27:09;97911.78;;;23.10;44.86
59831;BME280;45711;50.108;13.712;2022-07-29T09:29:35;97902.69;;;22.67;47.21
59831;BME280;45711;50.108;13.712;2022-07-29T09:32:00;97895.47;;;22.55;47.74
59831;BME280;45711;50.108;13.712;2022-07-29T09:34:30;97898.59;;;22.57;47.12
59831;BME280;45711;50.108;13.712;2022-07-29T09:37:00;97901.00;;;23.17;45.39
59831;BME280;45711;50.108;13.712;2022-07-29T09:39:29;97891.50;;;23.11;45.95
59831;BME280;45711;50.108;13.712;2022-07-29T09:41:55;97896.41;;;22.82;46.52
59831;BME280;45711;50.108;13.712;2022-07-29T09:44:22;97895.19;;;22.61;47.25
59831;BME280;45711;50.108;13.712;2022-07-29T09:46:54;97894.69;;;22.74;47.13
59831;BME280;45711;50.108;13.712;2022-07-29T09:49:20;97889.84;;;22.68;46.94
59831;BME280;45711;50.108;13.712;2022-07-29T09:51:45;97886.63;;;22.62;47.86
59831;BME280;45711;50.108;13.712;2022-07-29T09:54:22;97883.63;;;22.87;46.32
59831;BME280;45711;50.108;13.712;2022-07-29T09:56:48;97889.38;;;22.81;45.69
59831;BME280;45711;50.108;13.712;2022-07-29T09:59:19;97888.81;;;22.92;46.48
59831;BME280;45711;50.108;13.712;2022-07-29T10:01:52;97890.25;;;23.05;46.78
59831;BME280;45711;50.108;13.712;2022-07-29T10:04:18;97886.56;;;22.97;46.94
59831;BME280;45711;50.108;13.712;2022-07-29T10:09:27;97889.41;;;22.85;47.88
59831;BME280;45711;50.108;13.712;2022-07-29T10:12:03;97883.97;;;22.85;47.79
59831;BME280;45711;50.108;13.712;2022-07-29T10:14:29;97891.66;;;22.79;48.09
59831;BME280;45711;50.108;13.712;2022-07-29T10:16:56;97886.06;;;22.53;48.89
59831;BME280;45711;50.108;13.712;2022-07-29T10:19:22;97883.47;;;22.79;48.11
59831;BME280;45711;50.108;13.712;2022-07-29T10:21:47;97876.22;;;22.68;48.07
59831;BME280;45711;50.108;13.712;2022-07-29T10:24:16;97883.41;;;23.15;47.03
59831;BME280;45711;50.108;13.712;2022-07-29T10:26:41;97890.03;;;23.59;44.38
59831;BME280;45711;50.108;13.712;2022-07-29T10:29:12;97883.22;;;23.27;45.43
59831;BME280;45711;50.108;13.712;2022-07-29T10:31:40;97882.59;;;23.14;46.04
59831;BME280;45711;50.108;13.712;2022-07-29T10:34:12;97892.34;;;23.35;46.12
59831;BME280;45711;50.108;13.712;2022-07-29T10:36:42;97883.75;;;24.31;44.04
59831;BME280;45711;50.108;13.712;2022-07-29T10:39:12;97890.78;;;23.56;46.12
59831;BME280;45711;50.108;13.712;2022-07-29T10:42:05;97879.72;;;23.72;45.82
59831;BME280;45711;50.108;13.712;2022-07-29T10:44:38;97881.22;;;24.19;44.24
59831;BME280;45711;50.108;13.712;2022-07-29T10:47:05;97887.47;;;24.43;43.20
59831;BME280;45711;50.108;13.712;2022-07-29T10:49:33;97882.66;;;23.83;45.75
59831;BME280;45711;50.108;13.712;2022-07-29T10:51:59;97883.50;;;24.70;43.52
59831;BME280;45711;50.108;13.712;2022-07-29T10:54:41;97881.44;;;25.27;41.92
59831;BME280;45711;50.108;13.712;2022-07-29T10:57:14;97874.78;;;25.28;41.87
59831;BME280;45711;50.108;13.712;2022-07-29T10:59:40;97876.00;;;24.97;43.12
59831;BME280;45711;50.108;13.712;2022-07-29T11:05:02;97873.16;;;24.90;43.07
59831;BME280;45711;50.108;13.712;2022-07-29T11:07:28;97878.59;;;24.26;43.49
59831;BME280;45711;50.108;13.712;2022-07-29T11:12:45;97870.53;;;24.97;42.56
59831;BME280;45711;50.108;13.712;2022-07-29T11:15:12;97872.59;;;25.45;42.04
59831;BME280;45711;50.108;13.712;2022-07-29T11:20:31;97870.22;;;24.72;43.70
59831;BME280;45711;50.108;13.712;2022-07-29T11:22:57;97864.38;;;25.07;42.79
59831;BME280;45711;50.108;13.712;2022-07-29T11:25:23;97868.38;;;24.80;43.14
59831;BME280;45711;50.108;13.712;2022-07-29T11:27:49;97867.69;;;24.90;42.94
59831;BME280;45711;50.108;13.712;2022-07-29T11:30:14;97864.25;;;24.97;42.02
59831;BME280;45711;50.108;13.712;2022-07-29T11:32:40;97862.72;;;24.36;44.48
59831;BME280;45711;50.108;13.712;2022-07-29T11:35:10;97869.75;;;23.38;46.88
59831;BME280;45711;50.108;13.712;2022-07-29T11:37:37;97858.69;;;23.99;45.03
59831;BME280;45711;50.108;13.712;2022-07-29T11:40:20;97865.00;;;24.33;43.97
59831;BME280;45711;50.108;13.712;2022-07-29T11:42:47;97855.25;;;24.32;43.74
59831;BME280;45711;50.108;13.712;2022-07-29T11:45:14;97861.47;;;24.29;44.92
59831;BME280;45711;50.108;13.712;2022-07-29T11:47:41;97852.97;;;24.08;45.58
59831;BME280;45711;50.108;13.712;2022-07-29T11:50:08;97855.25;;;24.32;44.39
59831;BME280;45711;50.108;13.712;2022-07-29T11:52:34;97856.44;;;24.62;44.14
59831;BME280;45711;50.108;13.712;2022-07-29T11:55:04;97861.91;;;24.62;43.33
59831;BME280;45711;50.108;13.712;2022-07-29T11:57:30;97848.72;;;24.71;43.64
59831;BME280;45711;50.108;13.712;2022-07-29T11:59:56;97859.22;;;24.65;43.95
59831;BME280;45711;50.108;13.712;2022-07-29T12:02:25;97846.50;;;24.50;44.42
59831;BME280;45711;50.108;13.712;2022-07-29T12:05:03;97845.31;;;24.47;44.53
59831;BME280;45711;50.108;13.712;2022-07-29T12:07:28;97846.38;;;24.39;45.08
59831;BME280;45711;50.108;13.712;2022-07-29T12:09:54;97838.69;;;24.48;44.36
59831;BME280;45711;50.108;13.712;2022-07-29T12:12:20;97833.41;;;25.00;43.09
59831;BME280;45711;50.108;13.712;2022-07-29T12:14:46;97837.50;;;24.79;43.47
59831;BME280;45711;50.108;13.712;2022-07-29T12:17:24;97839.84;;;24.47;44.47
59831;BME280;45711;50.108;13.712;2022-07-29T12:19:51;97839.06;;;24.47;44.83
59831;BME280;45711;50.108;13.712;2022-07-29T12:22:23;97835.81;;;24.71;44.56
59831;BME280;45711;50.108;13.712;2022-07-29T12:24:49;97834.44;;;24.54;44.95
59831;BME280;45711;50.108;13.712;2022-07-29T12:27:16;97830.19;;;24.57;45.32
59831;BME280;45711;50.108;13.712;2022-07-29T12:29:43;97826.97;;;25.19;42.96
59831;BME280;45711;50.108;13.712;2022-07-29T12:32:08;97822.84;;;25.39;43.09
59831;BME280;45711;50.108;13.712;2022-07-29T12:34:34;97813.00;;;25.31;43.32
59831;BME280;45711;50.108;13.712;2022-07-29T12:36:59;97817.97;;;25.66;42.74
59831;BME280;45711;50.108;13.712;2022-07-29T12:39:26;97815.34;;;25.77;41.59
59831;BME280;45711;50.108;13.712;2022-07-29T12:41:52;97808.84;;;25.48;43.04
59831;BME280;45711;50.108;13.712;2022-07-29T12:44:18;97803.91;;;25.20;43.50
59831;BME280;45711;50.108;13.712;2022-07-29T12:46:46;97800.97;;;25.02;43.85
59831;BME280;45711;50.108;13.712;2022-07-29T12:49:28;97809.78;;;24.85;43.64
59831;BME280;45711;50.108;13.712;2022-07-29T12:51:57;97801.31;;;25.38;42.89
59831;BME280;45711;50.108;13.712;2022-07-29T12:54:22;97803.66;;;24.95;44.33
59831;BME280;45711;50.108;13.712;2022-07-29T12:56:57;97815.63;;;25.68;43.19
59831;BME280;45711;50.108;13.712;2022-07-29T12:59:23;97812.22;;;25.78;42.58
59831;BME280;45711;50.108;13.712;2022-07-29T13:01:50;97803.84;;;25.61;42.73